sensor_id;sensor_type;location;lat;lon;timestamp;P1;durP1;ratioP1;P2;durP2;ratioP2
35576;SDS011;21680;52.400;16.920;2023-04-06T00:01:07;32.50;;;11.60;;
35576;SDS011;21680;52.400;16.920;2023-04-06T00:03:33;32.60;;;12.60;;
35576;SDS011;21680;52.400;16.920;2023-04-06T00:05:59;42.40;;;12.30;;
35576;SDS011;21680;52.400;16.920;2023-04-06T00:08:25;35.40;;;12.70;;
35576;SDS011;21680;52.400;16.920;2023-04-06T00:10:51;35.70;;;13.10;;
35576;SDS011;21680;52.400;16.920;2023-04-06T00:13:16;31.70;;;12.50;;
35576;SDS011;21680;52.400;16.920;2023-04-06T00:15:41;35.10;;;12.80;;
35576;SDS011;21680;52.400;16.920;2023-04-06T00:18:06;33.60;;;12.20;;
35576;SDS011;21680;52.400;16.920;2023-04-06T00:20:32;43.90;;;13.40;;
35576;SDS011;21680;52.400;16.920;2023-04-06T00:22:57;29.30;;;12.80;;
35576;SDS011;21680;52.400;16.920;2023-04-06T00:25:22;33.70;;;12.90;;
35576;SDS011;21680;52.400;16.920;2023-04-06T00:27:47;38.00;;;13.90;;
35576;SDS011;21680;52.400;16.920;2023-04-06T00:30:13;37.40;;;13.50;;
35576;SDS011;21680;52.400;16.920;2023-04-06T00:32:38;31.50;;;12.90;;
35576;SDS011;21680;52.400;16.920;2023-04-06T00:35:03;34.60;;;12.50;;
35576;SDS011;21680;52.400;16.920;2023-04-06T00:37:29;43.50;;;14.20;;
35576;SDS011;21680;52.400;16.920;2023-04-06T00:39:55;38.10;;;14.90;;
35576;SDS011;21680;52.400;16.920;2023-04-06T00:42:20;35.80;;;12.50;;
35576;SDS011;21680;52.400;16.920;2023-04-06T00:44:53;31.10;;;12.80;;
35576;SDS011;21680;52.400;16.920;2023-04-06T00:47:26;38.60;;;13.60;;
35576;SDS011;21680;52.400;16.920;2023-04-06T00:49:52;36.60;;;13.60;;
35576;SDS011;21680;52.400;16.920;2023-04-06T00:52:18;41.60;;;14.20;;
35576;SDS011;21680;52.400;16.920;2023-04-06T00:54:44;33.00;;;12.90;;
35576;SDS011;21680;52.400;16.920;2023-04-06T00:57:10;42.00;;;14.60;;
35576;SDS011;21680;52.400;16.920;2023-04-06T00:59:37;38.70;;;14.70;;
35576;SDS011;21680;52.400;16.920;2023-04-06T01:02:02;35.20;;;12.90;;
35576;SDS011;21680;52.400;16.920;2023-04-06T01:04:28;41.40;;;15.30;;
35576;SDS011;21680;52.400;16.920;2023-04-06T01:06:53;46.30;;;14.90;;
35576;SDS011;21680;52.400;16.920;2023-04-06T01:09:18;49.00;;;15.50;;
35576;SDS011;21680;52.400;16.920;2023-04-06T01:11:44;42.90;;;15.10;;
35576;SDS011;21680;52.400;16.920;2023-04-06T01:14:09;44.00;;;14.10;;
35576;SDS011;21680;52.400;16.920;2023-04-06T01:16:35;38.80;;;14.70;;
35576;SDS011;21680;52.400;16.920;2023-04-06T01:19:06;42.40;;;15.10;;
35576;SDS011;21680;52.400;16.920;2023-04-06T01:21:33;47.80;;;16.50;;
35576;SDS011;21680;52.400;16.920;2023-04-06T01:23:58;38.40;;;16.80;;
35576;SDS011;21680;52.400;16.920;2023-04-06T01:26:24;41.00;;;15.70;;
35576;SDS011;21680;52.400;16.920;2023-04-06T01:28:50;41.10;;;14.70;;
35576;SDS011;21680;52.400;16.920;2023-04-06T01:31:15;42.80;;;16.30;;
35576;SDS011;21680;52.400;16.920;2023-04-06T01:33:40;35.80;;;14.80;;
35576;SDS011;21680;52.400;16.920;2023-04-06T01:36:06;49.00;;;15.20;;
35576;SDS011;21680;52.400;16.920;2023-04-06T01:38:31;45.50;;;15.60;;
35576;SDS011;21680;52.400;16.920;2023-04-06T01:40:57;50.50;;;17.00;;
35576;SDS011;21680;52.400;16.920;2023-04-06T01:43:22;46.20;;;16.50;;
35576;SDS011;21680;52.400;16.920;2023-04-06T01:45:48;42.60;;;15.90;;
35576;SDS011;21680;52.400;16.920;2023-04-06T01:48:13;35.80;;;15.90;;
35576;SDS011;21680;52.400;16.920;2023-04-06T01:50:38;33.70;;;14.70;;
35576;SDS011;21680;52.400;16.920;2023-04-06T01:53:04;57.60;;;16.70;;
35576;SDS011;21680;52.400;16.920;2023-04-06T01:55:29;49.30;;;17.40;;
35576;SDS011;21680;52.400;16.920;2023-04-06T01:57:54;50.40;;;17.10;;
35576;SDS011;21680;52.400;16.920;2023-04-06T02:00:20;53.90;;;18.20;;
35576;SDS011;21680;52.400;16.920;2023-04-06T02:02:45;44.50;;;16.20;;
35576;SDS011;21680;52.400;16.920;2023-04-06T02:05:10;46.90;;;17.30;;
35576;SDS011;21680;52.400;16.920;2023-04-06T02:07:36;49.60;;;16.40;;
35576;SDS011;21680;52.400;16.920;2023-04-06T02:10:01;46.70;;;17.30;;
35576;SDS011;21680;52.400;16.920;2023-04-06T02:12:28;44.30;;;17.10;;
35576;SDS011;21680;52.400;16.920;2023-04-06T02:14:53;50.80;;;17.40;;
35576;SDS011;21680;52.400;16.920;2023-04-06T02:17:18;53.80;;;17.90;;
35576;SDS011;21680;52.400;16.920;2023-04-06T02:19:43;45.30;;;16.80;;
35576;SDS011;21680;52.400;16.920;2023-04-06T02:22:09;48.00;;;16.20;;
35576;SDS011;21680;52.400;16.920;2023-04-06T02:24:34;46.50;;;17.70;;
35576;SDS011;21680;52.400;16.920;2023-04-06T02:27:00;48.10;;;18.30;;
35576;SDS011;21680;52.400;16.920;2023-04-06T02:29:26;55.10;;;19.30;;
35576;SDS011;21680;52.400;16.920;2023-04-06T02:31:51;50.90;;;18.30;;
35576;SDS011;21680;52.400;16.920;2023-04-06T02:34:16;49.60;;;17.10;;
35576;SDS011;21680;52.400;16.920;2023-04-06T02:36:45;46.30;;;17.80;;
35576;SDS011;21680;52.400;16.920;2023-04-06T02:39:11;44.10;;;17.50;;
35576;SDS011;21680;52.400;16.920;2023-04-06T02:41:37;50.30;;;16.40;;
35576;SDS011;21680;52.400;16.920;2023-04-06T02:44:02;43.80;;;16.50;;
35576;SDS011;21680;52.400;16.920;2023-04-06T02:46:28;49.20;;;16.30;;
35576;SDS011;21680;52.400;16.920;2023-04-06T02:48:54;47.40;;;17.50;;
35576;SDS011;21680;52.400;16.920;2023-04-06T02:51:19;53.60;;;16.90;;
35576;SDS011;21680;52.400;16.920;2023-04-06T02:53:45;41.50;;;17.00;;
35576;SDS011;21680;52.400;16.920;2023-04-06T02:56:10;47.30;;;17.50;;
35576;SDS011;21680;52.400;16.920;2023-04-06T02:58:35;44.80;;;17.30;;
35576;SDS011;21680;52.400;16.920;2023-04-06T03:01:01;55.10;;;19.60;;
35576;SDS011;21680;52.400;16.920;2023-04-06T03:03:27;44.70;;;17.40;;
35576;SDS011;21680;52.400;16.920;2023-04-06T03:05:52;48.10;;;18.40;;
35576;SDS011;21680;52.400;16.920;2023-04-06T03:08:19;49.60;;;17.80;;
35576;SDS011;21680;52.400;16.920;2023-04-06T03:10:44;47.60;;;18.50;;
35576;SDS011;21680;52.400;16.920;2023-04-06T03:13:10;52.70;;;18.90;;
35576;SDS011;21680;52.400;16.920;2023-04-06T03:15:35;50.20;;;18.80;;
35576;SDS011;21680;52.400;16.920;2023-04-06T03:18:00;53.00;;;19.40;;
35576;SDS011;21680;52.400;16.920;2023-04-06T03:20:26;47.10;;;18.00;;
35576;SDS011;21680;52.400;16.920;2023-04-06T03:22:51;44.80;;;17.30;;
35576;SDS011;21680;52.400;16.920;2023-04-06T03:25:16;51.00;;;17.00;;
35576;SDS011;21680;52.400;16.920;2023-04-06T03:27:41;47.10;;;17.60;;
35576;SDS011;21680;52.400;16.920;2023-04-06T03:30:07;49.00;;;16.80;;
35576;SDS011;21680;52.400;16.920;2023-04-06T03:32:33;42.10;;;16.50;;
35576;SDS011;21680;52.400;16.920;2023-04-06T03:34:58;40.20;;;16.70;;
35576;SDS011;21680;52.400;16.920;2023-04-06T03:37:24;42.20;;;16.10;;
35576;SDS011;21680;52.400;16.920;2023-04-06T03:39:49;52.50;;;18.50;;
35576;SDS011;21680;52.400;16.920;2023-04-06T03:42:14;45.00;;;17.20;;
35576;SDS011;21680;52.400;16.920;2023-04-06T03:44:40;45.90;;;17.30;;
35576;SDS011;21680;52.400;16.920;2023-04-06T03:47:05;43.90;;;16.30;;
35576;SDS011;21680;52.400;16.920;2023-04-06T03:49:30;43.90;;;16.00;;
35576;SDS011;21680;52.400;16.920;2023-04-06T03:51:56;45.80;;;17.00;;
35576;SDS011;21680;52.400;16.920;2023-04-06T03:54:21;53.30;;;17.30;;
35576;SDS011;21680;52.400;16.920;2023-04-06T03:56:47;46.40;;;16.70;;
35576;SDS011;21680;52.400;16.920;2023-04-06T03:59:12;47.60;;;17.90;;
35576;SDS011;21680;52.400;16.920;2023-04-06T04:01:37;38.70;;;16.30;;
35576;SDS011;21680;52.400;16.920;2023-04-06T04:04:04;46.80;;;18.30;;
35576;SDS011;21680;52.400;16.920;2023-04-06T04:06:29;38.70;;;17.50;;
35576;SDS011;21680;52.400;16.920;2023-04-06T04:08:55;43.20;;;17.50;;
35576;SDS011;21680;52.400;16.920;2023-04-06T04:11:21;43.50;;;17.50;;
35576;SDS011;21680;52.400;16.920;2023-04-06T04:13:46;42.50;;;17.30;;
35576;SDS011;21680;52.400;16.920;2023-04-06T04:16:11;40.70;;;16.70;;
35576;SDS011;21680;52.400;16.920;2023-04-06T04:18:36;44.80;;;18.60;;
35576;SDS011;21680;52.400;16.920;2023-04-06T04:21:02;43.70;;;18.70;;
35576;SDS011;21680;52.400;16.920;2023-04-06T04:23:27;53.80;;;18.50;;
35576;SDS011;21680;52.400;16.920;2023-04-06T04:25:52;39.10;;;16.60;;
35576;SDS011;21680;52.400;16.920;2023-04-06T04:28:17;56.90;;;18.50;;
35576;SDS011;21680;52.400;16.920;2023-04-06T04:30:43;42.70;;;17.40;;
35576;SDS011;21680;52.400;16.920;2023-04-06T04:33:08;39.00;;;16.40;;
35576;SDS011;21680;52.400;16.920;2023-04-06T04:35:33;49.40;;;18.70;;
35576;SDS011;21680;52.400;16.920;2023-04-06T04:37:58;54.60;;;17.90;;
35576;SDS011;21680;52.400;16.920;2023-04-06T04:40:24;42.90;;;18.40;;
35576;SDS011;21680;52.400;16.920;2023-04-06T04:42:49;52.70;;;22.50;;
35576;SDS011;21680;52.400;16.920;2023-04-06T04:45:16;56.60;;;21.00;;
35576;SDS011;21680;52.400;16.920;2023-04-06T04:47:41;61.40;;;19.70;;
35576;SDS011;21680;52.400;16.920;2023-04-06T04:50:06;49.10;;;20.60;;
35576;SDS011;21680;52.400;16.920;2023-04-06T04:52:32;49.00;;;19.70;;
35576;SDS011;21680;52.400;16.920;2023-04-06T04:54:57;50.00;;;19.60;;
35576;SDS011;21680;52.400;16.920;2023-04-06T04:57:22;51.90;;;19.70;;
35576;SDS011;21680;52.400;16.920;2023-04-06T04:59:48;50.10;;;19.20;;
35576;SDS011;21680;52.400;16.920;2023-04-06T05:02:15;39.60;;;17.00;;
35576;SDS011;21680;52.400;16.920;2023-04-06T05:04:40;53.60;;;18.30;;
35576;SDS011;21680;52.400;16.920;2023-04-06T05:07:06;53.10;;;19.80;;
35576;SDS011;21680;52.400;16.920;2023-04-06T05:09:32;47.20;;;19.00;;
35576;SDS011;21680;52.400;16.920;2023-04-06T05:11:58;50.40;;;19.50;;
35576;SDS011;21680;52.400;16.920;2023-04-06T05:14:25;44.00;;;18.90;;
35576;SDS011;21680;52.400;16.920;2023-04-06T05:16:51;49.20;;;19.60;;
35576;SDS011;21680;52.400;16.920;2023-04-06T05:19:17;49.80;;;19.10;;
35576;SDS011;21680;52.400;16.920;2023-04-06T05:21:42;49.00;;;19.50;;
35576;SDS011;21680;52.400;16.920;2023-04-06T05:24:07;46.10;;;17.90;;
35576;SDS011;21680;52.400;16.920;2023-04-06T05:26:33;55.70;;;20.00;;
35576;SDS011;21680;52.400;16.920;2023-04-06T05:28:59;50.50;;;19.70;;
35576;SDS011;21680;52.400;16.920;2023-04-06T05:31:24;53.30;;;20.40;;
35576;SDS011;21680;52.400;16.920;2023-04-06T05:33:49;53.00;;;20.90;;
35576;SDS011;21680;52.400;16.920;2023-04-06T05:36:15;56.80;;;21.20;;
35576;SDS011;21680;52.400;16.920;2023-04-06T05:38:40;49.40;;;21.50;;
35576;SDS011;21680;52.400;16.920;2023-04-06T05:41:05;49.40;;;20.20;;
35576;SDS011;21680;52.400;16.920;2023-04-06T05:43:31;67.00;;;23.00;;
35576;SDS011;21680;52.400;16.920;2023-04-06T05:45:56;65.20;;;22.00;;
35576;SDS011;21680;52.400;16.920;2023-04-06T05:48:21;53.50;;;19.90;;
35576;SDS011;21680;52.400;16.920;2023-04-06T05:50:48;54.80;;;21.60;;
35576;SDS011;21680;52.400;16.920;2023-04-06T05:53:15;68.10;;;22.70;;
35576;SDS011;21680;52.400;16.920;2023-04-06T05:55:40;55.70;;;23.10;;
35576;SDS011;21680;52.400;16.920;2023-04-06T05:58:06;61.70;;;22.80;;
35576;SDS011;21680;52.400;16.920;2023-04-06T06:00:31;54.30;;;21.80;;
35576;SDS011;21680;52.400;16.920;2023-04-06T06:02:56;56.10;;;20.90;;
35576;SDS011;21680;52.400;16.920;2023-04-06T06:05:21;63.10;;;22.70;;
35576;SDS011;21680;52.400;16.920;2023-04-06T06:07:47;52.40;;;22.70;;
35576;SDS011;21680;52.400;16.920;2023-04-06T06:10:12;62.00;;;22.30;;
35576;SDS011;21680;52.400;16.920;2023-04-06T06:12:37;63.00;;;20.70;;
35576;SDS011;21680;52.400;16.920;2023-04-06T06:15:03;61.30;;;20.60;;
35576;SDS011;21680;52.400;16.920;2023-04-06T06:17:28;60.60;;;21.90;;
35576;SDS011;21680;52.400;16.920;2023-04-06T06:19:54;51.10;;;20.50;;
35576;SDS011;21680;52.400;16.920;2023-04-06T06:22:20;55.00;;;19.60;;
35576;SDS011;21680;52.400;16.920;2023-04-06T06:24:45;42.00;;;17.30;;
35576;SDS011;21680;52.400;16.920;2023-04-06T06:27:10;48.70;;;20.60;;
35576;SDS011;21680;52.400;16.920;2023-04-06T06:29:35;42.50;;;18.10;;
35576;SDS011;21680;52.400;16.920;2023-04-06T06:32:01;43.50;;;18.20;;
35576;SDS011;21680;52.400;16.920;2023-04-06T06:34:26;47.40;;;16.90;;
35576;SDS011;21680;52.400;16.920;2023-04-06T06:36:51;43.30;;;17.20;;
35576;SDS011;21680;52.400;16.920;2023-04-06T06:39:16;45.60;;;18.20;;
35576;SDS011;21680;52.400;16.920;2023-04-06T06:41:42;48.40;;;18.50;;
35576;SDS011;21680;52.400;16.920;2023-04-06T06:44:07;44.40;;;17.00;;
35576;SDS011;21680;52.400;16.920;2023-04-06T06:46:32;48.20;;;17.60;;
35576;SDS011;21680;52.400;16.920;2023-04-06T06:48:58;38.60;;;16.60;;
35576;SDS011;21680;52.400;16.920;2023-04-06T06:51:23;57.60;;;16.80;;
35576;SDS011;21680;52.400;16.920;2023-04-06T06:53:48;42.50;;;16.00;;
35576;SDS011;21680;52.400;16.920;2023-04-06T06:56:14;40.90;;;15.30;;
35576;SDS011;21680;52.400;16.920;2023-04-06T06:58:39;37.90;;;15.30;;
35576;SDS011;21680;52.400;16.920;2023-04-06T07:01:04;29.00;;;13.60;;
35576;SDS011;21680;52.400;16.920;2023-04-06T07:03:30;30.80;;;12.70;;
35576;SDS011;21680;52.400;16.920;2023-04-06T07:05:55;33.60;;;12.60;;
35576;SDS011;21680;52.400;16.920;2023-04-06T07:08:21;29.30;;;11.20;;
35576;SDS011;21680;52.400;16.920;2023-04-06T07:10:49;35.50;;;11.80;;
35576;SDS011;21680;52.400;16.920;2023-04-06T07:13:17;29.00;;;12.90;;
35576;SDS011;21680;52.400;16.920;2023-04-06T07:15:47;33.40;;;12.10;;
35576;SDS011;21680;52.400;16.920;2023-04-06T07:18:12;26.70;;;12.80;;
35576;SDS011;21680;52.400;16.920;2023-04-06T07:20:38;31.90;;;11.00;;
35576;SDS011;21680;52.400;16.920;2023-04-06T07:23:03;23.10;;;10.70;;
35576;SDS011;21680;52.400;16.920;2023-04-06T07:25:29;23.80;;;9.50;;
35576;SDS011;21680;52.400;16.920;2023-04-06T07:27:55;22.70;;;9.70;;
35576;SDS011;21680;52.400;16.920;2023-04-06T07:30:20;30.50;;;10.40;;
35576;SDS011;21680;52.400;16.920;2023-04-06T07:32:47;22.70;;;10.00;;
35576;SDS011;21680;52.400;16.920;2023-04-06T07:35:12;24.00;;;9.20;;
35576;SDS011;21680;52.400;16.920;2023-04-06T07:37:38;22.30;;;9.90;;
35576;SDS011;21680;52.400;16.920;2023-04-06T07:40:03;22.60;;;9.70;;
35576;SDS011;21680;52.400;16.920;2023-04-06T07:42:29;25.30;;;8.70;;
35576;SDS011;21680;52.400;16.920;2023-04-06T07:44:54;20.40;;;8.70;;
35576;SDS011;21680;52.400;16.920;2023-04-06T07:47:20;17.70;;;8.70;;
35576;SDS011;21680;52.400;16.920;2023-04-06T07:49:45;20.00;;;9.00;;
35576;SDS011;21680;52.400;16.920;2023-04-06T07:52:11;16.80;;;8.00;;
35576;SDS011;21680;52.400;16.920;2023-04-06T07:54:36;19.90;;;8.80;;
35576;SDS011;21680;52.400;16.920;2023-04-06T07:57:01;23.70;;;8.60;;
35576;SDS011;21680;52.400;16.920;2023-04-06T07:59:27;22.70;;;9.40;;
35576;SDS011;21680;52.400;16.920;2023-04-06T08:01:52;15.00;;;7.30;;
35576;SDS011;21680;52.400;16.920;2023-04-06T08:04:17;19.40;;;8.40;;
35576;SDS011;21680;52.400;16.920;2023-04-06T08:06:42;16.50;;;7.50;;
35576;SDS011;21680;52.400;16.920;2023-04-06T08:09:08;25.60;;;8.00;;
35576;SDS011;21680;52.400;16.920;2023-04-06T08:11:33;19.50;;;8.20;;
35576;SDS011;21680;52.400;16.920;2023-04-06T08:13:58;25.80;;;9.10;;
35576;SDS011;21680;52.400;16.920;2023-04-06T08:16:24;22.40;;;9.00;;
35576;SDS011;21680;52.400;16.920;2023-04-06T08:18:49;18.30;;;8.50;;
35576;SDS011;21680;52.400;16.920;2023-04-06T08:21:14;21.80;;;10.00;;
35576;SDS011;21680;52.400;16.920;2023-04-06T08:23:40;15.30;;;7.70;;
35576;SDS011;21680;52.400;16.920;2023-04-06T08:26:05;16.70;;;6.80;;
35576;SDS011;21680;52.400;16.920;2023-04-06T08:28:31;16.70;;;6.90;;
35576;SDS011;21680;52.400;16.920;2023-04-06T08:30:57;20.90;;;7.60;;
35576;SDS011;21680;52.400;16.920;2023-04-06T08:33:22;15.40;;;7.30;;
35576;SDS011;21680;52.400;16.920;2023-04-06T08:35:47;15.40;;;7.10;;
35576;SDS011;21680;52.400;16.920;2023-04-06T08:38:13;15.20;;;6.80;;
35576;SDS011;21680;52.400;16.920;2023-04-06T08:40:38;20.80;;;8.10;;
35576;SDS011;21680;52.400;16.920;2023-04-06T08:43:08;12.50;;;7.00;;
35576;SDS011;21680;52.400;16.920;2023-04-06T08:45:36;16.70;;;7.00;;
35576;SDS011;21680;52.400;16.920;2023-04-06T08:48:03;18.20;;;8.00;;
35576;SDS011;21680;52.400;16.920;2023-04-06T08:50:32;17.70;;;7.40;;
35576;SDS011;21680;52.400;16.920;2023-04-06T08:52:58;16.80;;;6.90;;
35576;SDS011;21680;52.400;16.920;2023-04-06T08:55:24;18.50;;;8.10;;
35576;SDS011;21680;52.400;16.920;2023-04-06T08:57:50;20.80;;;8.40;;
35576;SDS011;21680;52.400;16.920;2023-04-06T09:00:18;17.50;;;7.80;;
35576;SDS011;21680;52.400;16.920;2023-04-06T09:02:45;17.80;;;7.30;;
35576;SDS011;21680;52.400;16.920;2023-04-06T09:05:11;19.00;;;7.90;;
35576;SDS011;21680;52.400;16.920;2023-04-06T09:07:37;28.50;;;8.00;;
35576;SDS011;21680;52.400;16.920;2023-04-06T09:10:06;18.50;;;7.20;;
35576;SDS011;21680;52.400;16.920;2023-04-06T09:12:33;11.30;;;6.70;;
35576;SDS011;21680;52.400;16.920;2023-04-06T09:14:59;16.30;;;7.30;;
35576;SDS011;21680;52.400;16.920;2023-04-06T09:17:26;16.90;;;7.90;;
35576;SDS011;21680;52.400;16.920;2023-04-06T09:19:53;14.10;;;6.90;;
35576;SDS011;21680;52.400;16.920;2023-04-06T09:22:19;17.90;;;7.00;;
35576;SDS011;21680;52.400;16.920;2023-04-06T09:27:15;17.60;;;7.30;;
35576;SDS011;21680;52.400;16.920;2023-04-06T09:29:41;14.40;;;6.70;;
35576;SDS011;21680;52.400;16.920;2023-04-06T09:32:07;24.30;;;7.50;;
35576;SDS011;21680;52.400;16.920;2023-04-06T09:34:38;15.00;;;5.90;;
35576;SDS011;21680;52.400;16.920;2023-04-06T09:37:16;12.40;;;5.50;;
35576;SDS011;21680;52.400;16.920;2023-04-06T09:39:43;16.90;;;5.80;;
35576;SDS011;21680;52.400;16.920;2023-04-06T09:42:09;21.20;;;5.80;;
35576;SDS011;21680;52.400;16.920;2023-04-06T09:44:35;12.20;;;5.40;;
35576;SDS011;21680;52.400;16.920;2023-04-06T09:47:00;10.90;;;6.10;;
35576;SDS011;21680;52.400;16.920;2023-04-06T09:49:31;10.60;;;5.50;;
35576;SDS011;21680;52.400;16.920;2023-04-06T09:51:59;12.70;;;5.10;;
35576;SDS011;21680;52.400;16.920;2023-04-06T09:54:30;18.90;;;6.30;;
35576;SDS011;21680;52.400;16.920;2023-04-06T09:57:02;14.30;;;5.80;;
35576;SDS011;21680;52.400;16.920;2023-04-06T09:59:38;9.70;;;5.80;;
35576;SDS011;21680;52.400;16.920;2023-04-06T10:04:52;13.90;;;5.70;;
35576;SDS011;21680;52.400;16.920;2023-04-06T10:07:21;15.20;;;5.90;;
35576;SDS011;21680;52.400;16.920;2023-04-06T10:09:47;12.90;;;5.00;;
35576;SDS011;21680;52.400;16.920;2023-04-06T10:12:14;16.00;;;7.70;;
35576;SDS011;21680;52.400;16.920;2023-04-06T10:14:40;9.00;;;4.80;;
35576;SDS011;21680;52.400;16.920;2023-04-06T10:17:06;11.90;;;5.30;;
35576;SDS011;21680;52.400;16.920;2023-04-06T10:22:38;11.50;;;5.00;;
35576;SDS011;21680;52.400;16.920;2023-04-06T10:25:09;13.40;;;5.90;;
35576;SDS011;21680;52.400;16.920;2023-04-06T10:27:34;9.90;;;5.60;;
35576;SDS011;21680;52.400;16.920;2023-04-06T10:30:04;14.10;;;5.90;;
35576;SDS011;21680;52.400;16.920;2023-04-06T10:32:34;11.90;;;5.30;;
35576;SDS011;21680;52.400;16.920;2023-04-06T10:35:07;16.20;;;6.10;;
35576;SDS011;21680;52.400;16.920;2023-04-06T10:40:35;18.30;;;5.50;;
35576;SDS011;21680;52.400;16.920;2023-04-06T10:43:09;12.30;;;4.20;;
35576;SDS011;21680;52.400;16.920;2023-04-06T10:45:36;10.50;;;4.00;;
35576;SDS011;21680;52.400;16.920;2023-04-06T10:48:12;14.10;;;4.80;;
35576;SDS011;21680;52.400;16.920;2023-04-06T10:50:43;10.50;;;4.30;;
35576;SDS011;21680;52.400;16.920;2023-04-06T10:53:09;11.70;;;4.10;;
35576;SDS011;21680;52.400;16.920;2023-04-06T10:55:35;7.30;;;4.10;;
35576;SDS011;21680;52.400;16.920;2023-04-06T10:58:07;13.50;;;4.50;;
35576;SDS011;21680;52.400;16.920;2023-04-06T11:00:33;8.60;;;4.10;;
35576;SDS011;21680;52.400;16.920;2023-04-06T11:02:59;9.00;;;4.00;;
35576;SDS011;21680;52.400;16.920;2023-04-06T11:05:26;9.10;;;3.80;;
35576;SDS011;21680;52.400;16.920;2023-04-06T11:07:51;9.60;;;4.20;;
35576;SDS011;21680;52.400;16.920;2023-04-06T11:10:21;10.20;;;4.20;;
35576;SDS011;21680;52.400;16.920;2023-04-06T11:12:52;7.70;;;4.20;;
35576;SDS011;21680;52.400;16.920;2023-04-06T11:17:43;16.30;;;5.20;;
35576;SDS011;21680;52.400;16.920;2023-04-06T11:20:10;10.20;;;4.30;;
35576;SDS011;21680;52.400;16.920;2023-04-06T11:22:47;12.90;;;4.40;;
35576;SDS011;21680;52.400;16.920;2023-04-06T11:25:13;8.00;;;4.00;;
35576;SDS011;21680;52.400;16.920;2023-04-06T11:27:38;9.90;;;3.80;;
35576;SDS011;21680;52.400;16.920;2023-04-06T11:30:04;8.40;;;4.40;;
35576;SDS011;21680;52.400;16.920;2023-04-06T11:32:40;8.30;;;4.40;;
35576;SDS011;21680;52.400;16.920;2023-04-06T11:35:10;12.70;;;4.90;;
35576;SDS011;21680;52.400;16.920;2023-04-06T11:37:45;9.40;;;4.60;;
35576;SDS011;21680;52.400;16.920;2023-04-06T11:40:11;6.80;;;4.20;;
35576;SDS011;21680;52.400;16.920;2023-04-06T11:42:36;8.60;;;3.90;;
35576;SDS011;21680;52.400;16.920;2023-04-06T11:45:01;12.80;;;5.40;;
35576;SDS011;21680;52.400;16.920;2023-04-06T11:47:30;8.90;;;4.60;;
35576;SDS011;21680;52.400;16.920;2023-04-06T11:50:05;10.30;;;4.60;;
35576;SDS011;21680;52.400;16.920;2023-04-06T11:52:32;9.30;;;4.20;;
35576;SDS011;21680;52.400;16.920;2023-04-06T11:54:57;10.00;;;4.40;;
35576;SDS011;21680;52.400;16.920;2023-04-06T11:57:23;13.10;;;4.70;;
35576;SDS011;21680;52.400;16.920;2023-04-06T11:59:52;9.80;;;4.90;;
35576;SDS011;21680;52.400;16.920;2023-04-06T12:02:18;13.10;;;4.40;;
35576;SDS011;21680;52.400;16.920;2023-04-06T12:04:44;9.80;;;4.80;;
35576;SDS011;21680;52.400;16.920;2023-04-06T12:07:10;8.90;;;4.50;;
35576;SDS011;21680;52.400;16.920;2023-04-06T12:09:35;7.10;;;4.20;;
35576;SDS011;21680;52.400;16.920;2023-04-06T12:12:02;11.70;;;4.50;;
35576;SDS011;21680;52.400;16.920;2023-04-06T12:14:27;9.50;;;5.40;;
35576;SDS011;21680;52.400;16.920;2023-04-06T12:16:53;10.80;;;4.60;;
35576;SDS011;21680;52.400;16.920;2023-04-06T12:19:18;11.40;;;4.00;;
35576;SDS011;21680;52.400;16.920;2023-04-06T12:21:44;9.00;;;4.60;;
35576;SDS011;21680;52.400;16.920;2023-04-06T12:24:09;12.90;;;5.20;;
35576;SDS011;21680;52.400;16.920;2023-04-06T12:26:35;11.90;;;4.00;;
35576;SDS011;21680;52.400;16.920;2023-04-06T12:29:02;8.60;;;4.40;;
35576;SDS011;21680;52.400;16.920;2023-04-06T12:31:34;11.80;;;5.00;;
35576;SDS011;21680;52.400;16.920;2023-04-06T12:34:01;14.50;;;4.90;;
35576;SDS011;21680;52.400;16.920;2023-04-06T12:36:28;10.00;;;5.10;;
35576;SDS011;21680;52.400;16.920;2023-04-06T12:38:53;11.30;;;4.80;;
35576;SDS011;21680;52.400;16.920;2023-04-06T12:41:19;9.80;;;4.40;;
35576;SDS011;21680;52.400;16.920;2023-04-06T12:43:45;9.80;;;5.20;;
35576;SDS011;21680;52.400;16.920;2023-04-06T12:46:11;10.30;;;5.00;;
35576;SDS011;21680;52.400;16.920;2023-04-06T12:48:37;9.20;;;5.20;;
35576;SDS011;21680;52.400;16.920;2023-04-06T12:51:04;8.70;;;4.80;;
35576;SDS011;21680;52.400;16.920;2023-04-06T12:53:31;8.40;;;5.00;;
35576;SDS011;21680;52.400;16.920;2023-04-06T12:55:57;9.40;;;5.20;;
35576;SDS011;21680;52.400;16.920;2023-04-06T12:58:23;11.30;;;4.70;;
35576;SDS011;21680;52.400;16.920;2023-04-06T13:00:51;10.40;;;4.70;;
35576;SDS011;21680;52.400;16.920;2023-04-06T13:03:17;15.10;;;5.60;;
35576;SDS011;21680;52.400;16.920;2023-04-06T13:05:44;7.80;;;4.20;;
35576;SDS011;21680;52.400;16.920;2023-04-06T13:08:10;10.10;;;4.20;;
35576;SDS011;21680;52.400;16.920;2023-04-06T13:10:36;19.00;;;5.50;;
35576;SDS011;21680;52.400;16.920;2023-04-06T13:13:02;14.30;;;5.00;;
35576;SDS011;21680;52.400;16.920;2023-04-06T13:15:27;12.60;;;5.30;;
35576;SDS011;21680;52.400;16.920;2023-04-06T13:17:52;10.90;;;5.10;;
35576;SDS011;21680;52.400;16.920;2023-04-06T13:20:18;9.20;;;5.00;;
35576;SDS011;21680;52.400;16.920;2023-04-06T13:22:43;12.10;;;5.70;;
35576;SDS011;21680;52.400;16.920;2023-04-06T13:25:09;10.30;;;5.40;;
35576;SDS011;21680;52.400;16.920;2023-04-06T13:27:34;10.20;;;5.00;;
35576;SDS011;21680;52.400;16.920;2023-04-06T13:30:01;9.70;;;5.60;;
35576;SDS011;21680;52.400;16.920;2023-04-06T13:32:27;7.70;;;4.00;;
35576;SDS011;21680;52.400;16.920;2023-04-06T13:34:55;9.60;;;4.80;;
35576;SDS011;21680;52.400;16.920;2023-04-06T13:37:21;9.20;;;4.00;;
35576;SDS011;21680;52.400;16.920;2023-04-06T13:39:46;10.60;;;4.20;;
35576;SDS011;21680;52.400;16.920;2023-04-06T13:42:11;13.50;;;5.10;;
35576;SDS011;21680;52.400;16.920;2023-04-06T13:44:36;7.50;;;4.10;;
35576;SDS011;21680;52.400;16.920;2023-04-06T13:47:02;6.90;;;4.40;;
35576;SDS011;21680;52.400;16.920;2023-04-06T13:49:27;10.10;;;6.30;;
35576;SDS011;21680;52.400;16.920;2023-04-06T13:51:52;8.50;;;4.70;;
35576;SDS011;21680;52.400;16.920;2023-04-06T13:54:18;9.00;;;4.40;;
35576;SDS011;21680;52.400;16.920;2023-04-06T13:56:43;6.60;;;4.60;;
35576;SDS011;21680;52.400;16.920;2023-04-06T13:59:08;8.90;;;5.00;;
35576;SDS011;21680;52.400;16.920;2023-04-06T14:01:33;14.10;;;4.80;;
35576;SDS011;21680;52.400;16.920;2023-04-06T14:03:59;8.20;;;4.30;;
35576;SDS011;21680;52.400;16.920;2023-04-06T14:06:24;5.60;;;4.10;;
35576;SDS011;21680;52.400;16.920;2023-04-06T14:08:49;10.10;;;4.70;;
35576;SDS011;21680;52.400;16.920;2023-04-06T14:11:15;8.00;;;4.50;;
35576;SDS011;21680;52.400;16.920;2023-04-06T14:13:41;10.70;;;4.70;;
35576;SDS011;21680;52.400;16.920;2023-04-06T14:16:06;10.10;;;4.70;;
35576;SDS011;21680;52.400;16.920;2023-04-06T14:18:32;9.10;;;6.20;;
35576;SDS011;21680;52.400;16.920;2023-04-06T14:20:59;13.20;;;5.90;;
35576;SDS011;21680;52.400;16.920;2023-04-06T14:23:25;10.50;;;5.50;;